Cementville, Indiana
Current Conditions -  °F | °C
As of 3:53 PM on Friday 24 Oct 2014 (Local Time) from KLOU Reporting Station
Overcast Overcast  
Wind Chill: 64°   Ceiling: 4000
Heat Index: 64°   Visibility: 10mi
Dew Point: 45°   Wind: 5mph
Humidity: 50%   Direction: 240°WSW
Pressure: 30.06"   Gusts: NA
Location:  38.3363°N, 85.6984°W
Report Text: KLOU 241953Z 24004KT 10SM OVC040 18/07 A3006 RMK AO2 SLP179 T01780072
Loading
Personal Weather Stations






























Interactive Weather Map
Tropical Storm Tracking
New forecast layout! Learn more

10-Day Weather Forecast

Advertisements
Track Severe Weather on mobile